地図

経路データ

SID SEASON NUMBER BASIN SUBBASIN NAME ISO_TIME NATURE LAT LON WMO_WIND WMO_PRES WMO_AGENCY TRACK_TYPE DIST2LAND LANDFALL IFLAG USA_AGENCY USA_ATCF_ID USA_LAT USA_LON USA_RECORD USA_STATUS USA_WIND USA_PRES USA_SSHS USA_R34_NE USA_R34_SE USA_R34_SW USA_R34_NW USA_R50_NE USA_R50_SE USA_R50_SW USA_R50_NW USA_R64_NE USA_R64_SE USA_R64_SW USA_R64_NW USA_POCI USA_ROCI USA_RMW USA_EYE TOKYO_LAT TOKYO_LON TOKYO_GRADE TOKYO_WIND TOKYO_PRES TOKYO_R50_DIR TOKYO_R50_LONG TOKYO_R50_SHORT TOKYO_R30_DIR TOKYO_R30_LONG TOKYO_R30_SHORT TOKYO_LAND CMA_LAT CMA_LON CMA_CAT CMA_WIND CMA_PRES HKO_LAT HKO_LON HKO_CAT HKO_WIND HKO_PRES NEWDELHI_LAT NEWDELHI_LON NEWDELHI_GRADE NEWDELHI_WIND NEWDELHI_PRES NEWDELHI_CI NEWDELHI_DP NEWDELHI_POCI REUNION_LAT REUNION_LON REUNION_TYPE REUNION_WIND REUNION_PRES REUNION_TNUM REUNION_CI REUNION_RMW REUNION_R34_NE REUNION_R34_SE REUNION_R34_SW REUNION_R34_NW REUNION_R50_NE REUNION_R50_SE REUNION_R50_SW REUNION_R50_NW REUNION_R64_NE REUNION_R64_SE REUNION_R64_SW REUNION_R64_NW BOM_LAT BOM_LON BOM_TYPE BOM_WIND BOM_PRES BOM_TNUM BOM_CI BOM_RMW BOM_R34_NE BOM_R34_SE BOM_R34_SW BOM_R34_NW BOM_R50_NE BOM_R50_SE BOM_R50_SW BOM_R50_NW BOM_R64_NE BOM_R64_SE BOM_R64_SW BOM_R64_NW BOM_ROCI BOM_POCI BOM_EYE BOM_POS_METHOD BOM_PRES_METHOD NADI_LAT NADI_LON NADI_CAT NADI_WIND NADI_PRES WELLINGTON_LAT WELLINGTON_LON WELLINGTON_WIND WELLINGTON_PRES DS824_LAT DS824_LON DS824_STAGE DS824_WIND DS824_PRES TD9636_LAT TD9636_LON TD9636_STAGE TD9636_WIND TD9636_PRES TD9635_LAT TD9635_LON TD9635_WIND TD9635_PRES TD9635_ROCI NEUMANN_LAT NEUMANN_LON NEUMANN_CLASS NEUMANN_WIND NEUMANN_PRES MLC_LAT MLC_LON MLC_CLASS MLC_WIND MLC_PRES USA_GUST BOM_GUST BOM_GUST_PER REUNION_GUST REUNION_GUST_PER USA_SEAHGT USA_SEARAD_NE USA_SEARAD_SE USA_SEARAD_SW USA_SEARAD_NW STORM_SPEED STORM_DIR
1978288N10185 1978 110 EP CP RITA 1978-10-15 00:00:00 TS 10.0000 185.400 main 2072 2072 O________OO___ jtwc_wp WP281978 10.0000 -174.600 TD 15 -1 10.0000 185.400 TC 15 10.0000 -174.600 1 15 10 253
1978288N10185 1978 110 EP CP RITA 1978-10-15 03:00:00 TS 9.85142 184.900 main 2120 2120 P________PP___ WP281978 9.84013 -175.098 TD 15 -1 9.84013 -175.098 TC 15 9.87401 -175.105 1 15 10 254
1978288N10185 1978 110 EP CP RITA 1978-10-15 06:00:00 TS 9.71603 184.397 main 2176 2176 O________OP___ jtwc_wp WP281978 9.70000 -175.600 TD 15 -1 9.70000 184.400 TC 15 9.74810 -175.608 1 15 10 256
1978288N10185 1978 110 EP CP RITA 1978-10-15 09:00:00 TS 9.60269 183.893 main 2225 2225 P________PP___ WP281978 9.59246 -176.107 TD 15 -1 9.59246 -176.107 TC 15 9.62314 -176.107 1 15 10 258
1978288N10185 1978 110 EP CP RITA 1978-10-15 12:00:00 TS 9.50000 183.400 main 2274 2274 O________OO___ jtwc_wp WP281978 9.50000 -176.600 TD 15 -1 9.50000 183.400 TC 15 9.50000 -176.600 1 15 10 258
1978288N10185 1978 110 EP CP RITA 1978-10-15 15:00:00 TS 9.39342 182.933 main 2324 2324 P________PP___ WP281978 9.39991 -177.057 TD 15 -1 9.39991 -177.057 TC 15 9.38043 -177.086 1 16 9 257
1978288N10185 1978 110 EP CP RITA 1978-10-15 18:00:00 TS 9.28992 182.478 main 2365 2365 O________OP___ jtwc_wp WP281978 9.30000 -177.500 TD 15 -1 9.30000 182.500 TC 15 9.26975 -177.565 1 17 9 257
1978288N10185 1978 110 EP CP RITA 1978-10-15 21:00:00 TS 9.18634 182.026 main 2415 2415 P________PP___ WP281978 9.19242 -177.943 TD 17 -1 9.19242 -177.943 TC 17 9.17420 -178.036 1 18 9 258
1978288N10185 1978 110 EP CP RITA 1978-10-16 00:00:00 TS 9.10000 181.567 main 2456 2456 O________OO___ jtwc_wp WP281978 9.10000 -178.400 TD 20 -1 9.10000 181.600 TC 20 9.10000 -178.500 1 20 10 261
1978288N10185 1978 110 EP CP RITA 1978-10-16 03:00:00 TS 9.03572 181.073 main 2506 2506 P________PP___ WP281978 9.03499 -178.900 TD 20 -1 9.03499 -178.900 TC 20 9.03717 -178.981 1 21 10 264
1978288N10185 1978 110 EP CP RITA 1978-10-16 06:00:00 TS 8.99917 180.583 main 2550 2550 O________OP___ jtwc_wp WP281978 9.00000 -179.400 TD 20 -1 9.00000 180.600 TC 20 8.99751 -179.452 1 22 9 267
1978288N10185 1978 110 EP CP RITA 1978-10-16 09:00:00 TS 8.98469 180.114 main 2594 2594 P________PP___ WP281978 8.98499 -179.880 TD 22 -1 8.98499 -179.880 TC 22 8.98409 -179.897 1 23 9 270
1978288N10185 1978 110 WP MM RITA 1978-10-16 12:00:00 TS 9.00000 179.700 main 2629 2629 O________OO___ jtwc_wp WP281978 9.00000 179.700 TD 25 -1 9.00000 179.700 TC 25 9.00000 179.700 1 25 7 274
1978288N10185 1978 110 WP MM RITA 1978-10-16 15:00:00 TS 9.03311 179.381 main 2656 2656 P________PP___ WP281978 9.03491 179.378 TD 27 -1 9.03491 179.378 TC 27 9.02950 179.389 1 26 6 279
1978288N10185 1978 110 WP MM RITA 1978-10-16 18:00:00 TS 9.09643 179.105 main 2676 2676 O________OP___ jtwc_wp WP281978 9.10000 179.100 TD 30 -1 9.10000 179.100 TC 30 9.08929 179.115 1 27 6 285
1978288N10185 1978 110 WP MM RITA 1978-10-16 21:00:00 TS 9.18308 178.831 main 2697 2697 P________PP___ WP281978 9.18488 178.830 TD 30 -1 9.18488 178.830 TC 30 9.17947 178.833 1 28 6 289
1978288N10185 1978 110 WP MM RITA 1978-10-17 00:00:00 TS 9.30000 178.500 main 2718 2718 O________OO___ jtwc_wp WP281978 9.30000 178.500 TD 30 -1 9.30000 178.500 TC 30 9.30000 178.500 1 30 8 288
1978288N10185 1978 110 WP MM RITA 1978-10-17 03:00:00 TS 9.44150 178.042 main 2757 2737 P________PP___ WP281978 9.43504 178.030 TD 30 -1 9.43504 178.030 TC 30 9.45442 178.066 1 30 10 289
1978288N10185 1978 110 WP MM RITA 1978-10-17 06:00:00 TS 9.64572 177.500 main 2737 2716 O_OO_____OP___ jtwc_wp WP281978 9.60000 177.500 TD 30 -1 10.0000 177.500 1 23 1006 9.70000 177.200 TD 30 1002 9.60000 177.500 TC 30 9.63502 177.575 1 30 11 292
1978288N10185 1978 110 WP MM RITA 1978-10-17 09:00:00 TS 9.85263 176.986 main 2725 2697 P_PP_____PP___ WP281978 9.79989 177.007 TD 30 -1 10.1126 177.008 1 23 1006 9.86261 176.758 TD 30 1002 9.79989 177.007 TC 30 9.82309 177.047 1 30 11 291
1978288N10185 1978 110 WP MM RITA 1978-10-17 12:00:00 TS 10.0333 176.467 main 2697 2670 O_OO_____OO___ jtwc_wp WP281978 10.0000 176.500 TD 30 -1 10.2000 176.500 1 23 1006 10.0000 176.300 TD 30 1002 10.0000 176.500 TC 30 10.0000 176.500 1 30 11 287
1978288N10185 1978 110 WP MM RITA 1978-10-17 15:00:00 TS 10.1662 175.931 main 2672 2647 P_PP_____PP___ WP281978 10.1649 175.957 TD 30 -1 10.2499 175.965 1 26 1004 10.0999 175.815 TD 30 1002 10.1649 175.957 TC 30 10.1514 175.960 1 30 11 283
1978288N10185 1978 110 WP MM RITA 1978-10-17 18:00:00 TS 10.2881 175.363 1004 tokyo main 2647 2615 OOOO_____OP___ jtwc_wp WP281978 10.3000 175.400 TD 30 -1 10.5000 175.000 2 1004 0 0 0 10.3000 175.400 1 29 1002 10.2000 175.300 TD 30 1002 10.3000 175.400 TC 30 10.2873 175.407 1 30 11 282
1978288N10185 1978 110 WP MM RITA 1978-10-17 21:00:00 TS 10.4026 174.819 main 2615 2592 PPPP_____PP___ WP281978 10.4149 174.850 TD 30 -1 10.4899 174.822 2 1002 0 0 10.3850 174.792 1 29 1002 10.3500 174.750 TD 30 1002 10.4149 174.850 TC 30 10.4046 174.851 1 30 11 281
1978288N10185 1978 110 WP MM RITA 1978-10-18 00:00:00 TS 10.5000 174.291 40 1000 tokyo main 2592 2570 OOOO_____OO___ jtwc_wp WP281978 10.5000 174.300 TD 30 -1 10.5000 174.500 3 40 1000 0 9 60 60 0 10.5000 174.200 1 29 1002 10.5000 174.200 TD 30 1002 10.5000 174.300 TC 30 10.5000 174.300 1 30 11 280
1978288N10185 1978 110 WP MM RITA 1978-10-18 03:00:00 TS 10.5821 173.766 main 2570 2539 PPPP_____PP___ WP281978 10.5574 173.742 TD 30 -1 10.5427 173.945 3 37 1000 0 9 90 90 10.6573 173.700 1 33 1001 10.6149 173.692 TD 32 1001 10.5574 173.742 TC 30 10.5631 173.772 1 31 11 278
1978288N10185 1978 110 WP MM RITA 1978-10-18 06:00:00 TS 10.6512 173.225 35 1000 tokyo main 2542 2513 OOOO_____OP___ jtwc_wp WP281978 10.6000 173.200 TD 30 -1 10.6000 173.300 3 35 1000 0 9 120 120 0 10.8000 173.200 2 38 1000 10.7000 173.200 TS 35 1000 10.6000 173.200 TC 30 10.6070 173.250 1 32 11 276
1978288N10185 1978 110 WP MM RITA 1978-10-18 09:00:00 TS 10.6982 172.695 main 2513 2484 PPPP_____PP___ WP281978 10.6423 172.700 TD 32 -1 10.6349 172.742 3 35 1000 0 9 120 120 10.8650 172.600 2 38 998 10.7574 172.700 TS 35 1000 10.6423 172.700 TC 32 10.6474 172.728 1 33 10 275
1978288N10185 1978 110 WP MM RITA 1978-10-18 12:00:00 TS 10.7500 172.167 35 1000 tokyo main 2494 2466 OOOO_____OO___ jtwc_wp WP281978 10.7000 172.200 TS 35 0 10.7000 172.200 3 35 1000 0 9 120 120 0 10.9000 172.000 2 38 996 10.8000 172.200 TS 35 1000 10.7000 172.200 TC 35 10.7000 172.200 2 35 10 278
1978288N10185 1978 110 WP MM RITA 1978-10-18 15:00:00 TS 10.8367 171.640 main 2461 2444 PPPP_____PP___ WP281978 10.7924 171.658 TS 35 0 10.8574 171.650 3 35 999 0 9 120 120 10.9423 171.492 2 38 996 10.8424 171.707 TS 35 1000 10.7924 171.658 TC 35 10.7933 171.678 2 36 11 280
1978288N10185 1978 110 WP MM RITA 1978-10-18 18:00:00 TS 10.9332 171.108 35 998 tokyo main 2444 2429 OOOO_____OP___ jtwc_wp WP281978 10.9000 171.100 TS 35 0 11.0000 171.100 3 35 998 0 9 120 120 0 11.0000 171.000 2 38 996 10.9000 171.200 TS 35 1000 10.9000 171.100 TC 35 10.8993 171.145 2 37 11 280
1978288N10185 1978 110 WP MM RITA 1978-10-18 21:00:00 TS 11.0200 170.569 main 2429 2410 PPPP_____PP___ WP281978 11.0073 170.565 TS 37 0 11.0074 170.557 3 42 997 0 9 105 75 11.0999 170.465 2 43 995 10.9924 170.672 TS 35 997 11.0073 170.565 TC 37 11.0057 170.590 2 38 11 279
1978288N10185 1978 110 WP MM RITA 1978-10-19 00:00:00 TS 11.1000 170.000 50 996 tokyo main 2410 2392 OOOO_____OO___ jtwc_wp WP281978 11.1000 170.000 TS 40 0 11.0000 170.000 4 50 996 0 1 90 30 0 11.2000 169.900 3 48 995 11.1000 170.100 TS 35 995 11.1000 170.000 TC 40 11.1000 170.000 2 40 12 278
1978288N10185 1978 110 WP MM RITA 1978-10-19 03:00:00 TS 11.1733 169.388 main 2393 2367 PPPP_____PP___ WP281978 11.1574 169.372 TS 40 0 11.0923 169.430 4 50 996 0 1 90 30 11.2724 169.308 3 48 995 11.1998 169.480 TS 37 995 11.1574 169.372 TC 40 11.1602 169.365 2 41 13 276
1978288N10185 1978 110 WP MM RITA 1978-10-19 06:00:00 TS 11.2345 168.732 50 996 tokyo main 2363 2350 OOOO_____OP___ jtwc_wp WP281978 11.2000 168.700 TS 40 0 11.2000 168.800 4 50 996 0 1 90 30 0 11.3000 168.700 3 48 995 11.3000 168.800 TS 40 995 11.2000 168.700 TC 40 11.2073 168.695 2 42 13 274
1978288N10185 1978 110 WP MM RITA 1978-10-19 09:00:00 TS 11.2738 168.045 main 2346 2325 PPPP_____PP___ WP281978 11.2499 168.007 TS 42 0 11.2500 168.072 4 50 995 0 1 90 45 11.2348 168.115 3 48 995 11.4074 168.065 TS 40 987 11.2499 168.007 TC 42 11.2507 168.002 2 43 14 273
1978288N10185 1978 110 WP MM RITA 1978-10-19 12:00:00 TS 11.3167 167.333 50 994 tokyo main 2321 2297 OOOO_____OO___ jtwc_wp WP281978 11.3000 167.300 TS 45 0 11.3000 167.300 4 50 994 0 1 90 60 0 11.2000 167.500 3 48 995 11.5000 167.300 TS 40 980 11.3000 167.300 TC 45 11.3000 167.300 2 45 14 275
1978288N10185 1978 110 WP MM RITA 1978-10-19 15:00:00 TS 11.3895 166.627 main 2291 2254 PPPP_____PP___ WP281978 11.3423 166.600 TS 52 0 11.3923 166.550 4 50 984 0 1 90 60 11.3273 166.838 3 53 990 11.5573 166.550 TS 45 972 11.3423 166.600 TC 52 11.3752 166.628 2 52 14 277
1978288N10185 1978 110 WP MM RITA 1978-10-19 18:00:00 TS 11.4761 165.908 50 975 tokyo main 2254 2211 OOOO_____OP___ jtwc_wp WP281978 11.4000 165.900 TS 60 0 11.5000 165.800 4 50 975 0 1 90 60 0 11.5000 166.100 3 58 985 11.6000 165.800 STS 50 965 11.4000 165.900 TC 60 11.4564 165.945 2 60 14 277
1978288N10185 1978 110 WP MM RITA 1978-10-19 21:00:00 TS 11.5689 165.173 main 2213 2166 PPPP_____PP___ WP281978 11.4997 165.215 TS 67 1 11.6147 165.058 4 60 967 0 1 80 55 11.6150 165.265 3 63 976 11.6499 165.042 STS 57 960 11.4997 165.215 TC 67 11.5344 165.240 2 67 15 277
1978288N10185 1978 110 WP MM RITA 1978-10-20 00:00:00 TS 11.6500 164.417 70 960 tokyo main 2168 2121 OOOO_____OO___ jtwc_wp WP281978 11.6000 164.500 TY 75 1 11.7000 164.300 5 70 960 8 35 25 8 70 50 0 11.7000 164.400 4 68 967 11.7000 164.300 T 65 955 11.6000 164.500 TC 75 11.6000 164.500 4 75 15 275
1978288N10185 1978 110 WP MM RITA 1978-10-20 03:00:00 TS 11.7061 163.645 main 2114 2068 PPPP_____PP___ WP281978 11.6648 163.722 TY 77 1 11.7148 163.515 5 70 962 8 35 30 8 70 60 11.7721 163.600 4 72 963 11.7647 163.608 T 67 952 11.6648 163.722 TC 77 11.6556 163.703 4 76 15 273
1978288N10185 1978 110 WP MM RITA 1978-10-20 06:00:00 TS 11.7325 162.845 70 965 tokyo main 2062 2018 OOOO_____OP___ jtwc_wp WP281978 11.7000 162.900 TY 80 1 11.7000 162.700 5 70 965 9 35 35 9 70 70 0 11.8000 162.800 4 77 960 11.8000 162.900 T 70 950 11.7000 162.900 TC 80 11.6949 162.873 4 77 16 271
1978288N10185 1978 110 WP MM RITA 1978-10-20 09:00:00 TS 11.7323 162.010 main 2012 1965 PPPP_____PP___ WP281978 11.7149 162.050 TY 80 1 11.7149 161.843 5 70 962 9 35 35 9 70 70 11.7724 161.950 4 77 957 11.7647 162.137 T 70 947 11.7149 162.050 TC 80 11.7118 162.031 4 78 16 269
1978288N10185 1978 110 WP MM RITA 1978-10-20 12:00:00 TS 11.7000 161.167 70 960 tokyo main 1965 1909 OOOO_____OO___ jtwc_wp WP281978 11.7000 161.200 TY 80 1 11.7000 161.000 5 70 960 9 35 35 9 70 70 0 11.7000 161.100 4 77 955 11.7000 161.300 T 70 945 11.7000 161.200 TC 80 11.7000 161.200 4 80 16 267
1978288N10185 1978 110 WP MM RITA 1978-10-20 15:00:00 TS 11.6406 160.332 main 1903 1865 PPPP_____PP___ WP281978 11.6648 160.385 TY 87 2 11.6073 160.220 5 70 955 9 37 37 9 75 75 11.5998 160.277 4 87 946 11.6577 160.335 T 75 942 11.6648 160.385 TC 87 11.6492 160.390 4 86 16 265
1978288N10185 1978 110 WP MM RITA 1978-10-20 18:00:00 TS 11.5620 159.533 70 950 tokyo main 1860 1814 OOOO_____OP___ jtwc_wp WP281978 11.6000 159.600 TY 95 2 11.5000 159.500 5 70 950 9 40 40 9 80 80 0 11.5000 159.500 5 97 938 11.6000 159.400 T 80 940 11.6000 159.600 TC 95 11.5720 159.597 4 92 15 264
1978288N10185 1978 110 WP MM RITA 1978-10-20 21:00:00 TS 11.4754 158.795 main 1814 1769 PPPP_____PP___ WP281978 11.4998 158.835 TY 100 3 11.4347 158.843 5 77 942 9 45 45 9 102 102 11.4348 158.778 5 97 936 11.4996 158.648 T 85 937 11.4998 158.835 TC 100 11.4837 158.831 4 98 14 263
1978288N10185 1978 110 WP MM RITA 1978-10-21 00:00:00 TS 11.4000 158.100 85 935 tokyo main 1769 1735 OOOO_____OO___ jtwc_wp WP281978 11.4000 158.100 TY 105 3 11.4000 158.200 5 85 935 9 50 50 9 125 125 0 11.4000 158.100 5 97 935 11.4000 158.000 ST 90 935 11.4000 158.100 TC 105 11.4000 158.100 4 105 14 265
1978288N10185 1978 110 WP MM RITA 1978-10-21 03:00:00 TS 11.3614 157.407 main 1735 1699 PPPP_____PP___ WP281978 11.3424 157.378 TY 105 3 11.4000 157.485 5 87 935 9 50 50 9 125 125 11.4074 157.435 5 97 935 11.3423 157.378 ST 95 935 11.3424 157.378 TC 105 11.3342 157.390 4 105 13 267
1978288N10185 1978 110 WP MM RITA 1978-10-21 06:00:00 TS 11.3295 156.753 90 935 tokyo main 1699 1674 OOOO_____OP___ jtwc_wp WP281978 11.3000 156.700 TY 105 3 11.4000 156.800 5 90 935 9 50 50 9 125 125 0 11.4000 156.800 5 97 935 11.3000 156.800 SuperT 100 935 11.3000 156.700 TC 105 11.2769 156.718 4 105 12 266
1978288N10185 1978 110 WP MM RITA 1978-10-21 09:00:00 TS 11.2705 156.148 main 1670 1642 PPPP_____PP___ WP281978 11.2424 156.070 TY 105 3 11.3573 156.227 5 90 935 9 55 55 9 127 127 11.3074 156.185 5 97 935 11.2423 156.250 SuperT 102 935 11.2424 156.070 TC 105 11.2312 156.087 4 105 12 264
1978288N10185 1978 110 WP MM RITA 1978-10-21 12:00:00 TS 11.2167 155.583 90 935 tokyo main 1642 1625 OOOO_____OO___ jtwc_wp WP281978 11.2000 155.500 TY 105 3 11.3000 155.700 5 90 935 9 60 60 9 130 130 0 11.2000 155.600 5 97 935 11.2000 155.700 SuperT 105 935 11.2000 155.500 TC 105 11.2000 155.500 4 105 11 265
1978288N10185 1978 110 WP MM RITA 1978-10-21 15:00:00 TS 11.1834 155.037 main 1622 1607 PPPP_____PP___ WP281978 11.1923 154.985 TY 107 3 11.2349 155.150 5 90 932 9 57 47 9 130 102 11.1199 155.035 5 101 932 11.1925 155.100 SuperT 105 932 11.1923 154.985 TC 107 11.1686 154.969 4 107 11 268
1978288N10185 1978 110 WP MM RITA 1978-10-21 18:00:00 TS 11.1757 154.513 90 930 tokyo main 1607 1594 OOOO_____OP___ jtwc_wp WP281978 11.2000 154.500 TY 110 3 11.2000 154.600 5 90 930 8 55 35 8 130 75 0 11.1000 154.500 6 106 930 11.2000 154.500 SuperT 105 930 11.2000 154.500 TC 110 11.1539 154.477 4 110 10 270
1978288N10185 1978 110 WP MM RITA 1978-10-21 21:00:00 TS 11.1907 154.003 main 1594 1583 PPPP_____PP___ WP281978 11.1849 154.007 TY 112 3 11.2349 154.058 5 90 922 8 60 37 8 140 77 11.1848 154.008 6 106 927 11.1924 153.942 SuperT 107 925 11.1849 154.007 TC 112 11.1624 153.997 4 112 10 273
1978288N10185 1978 110 WP MM RITA 1978-10-22 00:00:00 TS 11.2333 153.483 90 915 tokyo main 1583 1579 OOOO_____OO___ jtwc_wp WP281978 11.2000 153.500 TY 115 4 11.3000 153.500 5 90 915 8 65 40 8 150 80 0 11.3000 153.500 6 106 925 11.2000 153.400 SuperT 110 920 11.2000 153.500 TC 115 11.2000 153.500 4 115 11 276
1978288N10185 1978 110 WP MM RITA 1978-10-22 03:00:00 TS 11.2986 152.923 main 1584 1579 PPPP_____PP___ WP281978 11.2849 152.965 TY 117 4 11.3425 152.892 5 95 912 8 65 40 8 150 80 11.3500 152.907 6 111 917 11.2424 152.850 SuperT 115 915 11.2849 152.965 TC 117 11.2872 152.959 4 118 11 278
1978288N10185 1978 110 WP MM RITA 1978-10-22 06:00:00 TS 11.3833 152.349 100 910 tokyo main 1587 1584 OOOO_____OP___ jtwc_wp WP281978 11.4000 152.400 TY 120 4 11.4000 152.300 5 100 910 8 65 40 8 150 80 0 11.4000 152.300 6 116 910 11.3000 152.300 SuperT 120 910 11.4000 152.400 TC 120 11.3995 152.395 4 122 11 279
1978288N10185 1978 110 WP MM RITA 1978-10-22 09:00:00 TS 11.4831 151.792 main 1594 1586 PPPP_____PP___ WP281978 11.5149 151.808 TY 125 4 11.4997 151.815 5 100 907 8 65 40 8 150 80 11.5073 151.750 6 116 910 11.3498 151.765 SuperT 122 905 11.5149 151.808 TC 125 11.5121 151.809 4 126 11 279
1978288N10185 1978 110 WP MM RITA 1978-10-22 12:00:00 TS 11.5667 151.217 100 905 tokyo main 1591 1575 OOOO_____OO___ jtwc_wp WP281978 11.6000 151.200 ST 130 4 11.6000 151.300 5 100 905 8 65 40 8 150 80 0 11.6000 151.200 6 116 910 11.4000 151.200 SuperT 125 900 11.6000 151.200 TC 130 11.6000 151.200 4 130 12 275
1978288N10185 1978 110 WP MM RITA 1978-10-22 15:00:00 TS 11.5920 150.611 main 1575 1561 PPPP_____PP___ WP281978 11.6148 150.615 ST 132 4 11.6650 150.630 5 105 900 8 72 45 8 150 90 11.6072 150.637 6 121 907 11.4424 150.572 SuperT 127 895 11.6148 150.615 TC 132 11.6078 150.595 4 133 12 271
1978288N10185 1978 110 WP MM RITA 1978-10-22 18:00:00 TS 11.5986 149.961 110 895 tokyo main 1561 1549 OOOO_____OP___ jtwc_wp WP281978 11.6000 150.000 ST 135 4 11.7000 149.900 5 110 895 8 80 50 8 150 100 0 11.6000 150.000 6 126 905 11.5000 149.900 SuperT 130 890 11.6000 150.000 TC 135 11.5916 149.966 4 137 13 271
1978288N10185 1978 110 WP MM RITA 1978-10-22 21:00:00 TS 11.6140 149.261 main 1549 1540 PPPP_____PP___ WP281978 11.5849 149.322 ST 140 5 11.6998 149.200 5 110 890 8 85 70 8 162 137 11.6427 149.208 6 131 897 11.5924 149.208 SuperT 132 887 11.5849 149.322 TC 140 11.5795 149.304 4 141 14 272
1978288N10185 1978 110 WP MM RITA 1978-10-23 00:00:00 TS 11.6500 148.533 110 885 tokyo main 1550 1547 OOOO_____OO___ jtwc_wp WP281978 11.6000 148.600 ST 145 5 11.7000 148.500 5 110 885 9 90 90 9 175 175 0 11.7000 148.400 6 136 890 11.7000 148.500 SuperT 135 885 11.6000 148.600 TC 145 11.6000 148.600 4 145 14 275
1978288N10185 1978 110 WP MM RITA 1978-10-23 03:00:00 TS 11.7252 147.830 main 1546 1546 PPPP_____PP___ WP281978 11.6772 147.872 ST 147 5 11.7348 147.807 5 110 885 9 95 95 9 175 175 11.7420 147.757 6 136 887 11.8073 147.808 SuperT 137 885 11.6772 147.872 TC 147 11.7129 147.864 4 146 14 277
1978288N10185 1978 110 WP MM RITA 1978-10-23 06:00:00 TS 11.8261 147.097 110 885 tokyo main 1557 1557 OOOO_____OP___ jtwc_wp WP281978 11.8000 147.100 ST 150 5 11.8000 147.100 5 110 885 9 100 100 9 175 175 0 11.8000 147.100 6 136 884 11.9000 147.100 SuperT 140 885 11.8000 147.100 TC 150 11.8566 147.083 4 147 15 279
1978288N10185 1978 110 WP MM RITA 1978-10-23 09:00:00 TS 11.9534 146.313 main 1580 1580 PPPP_____PP___ WP281978 11.9723 146.273 ST 150 5 11.9070 146.395 5 115 885 9 100 100 9 175 175 11.9074 146.288 6 136 887 11.9646 146.387 SuperT 142 887 11.9723 146.273 TC 150 11.9970 146.261 4 148 16 278
1978288N10185 1978 110 WP MM RITA 1978-10-23 12:00:00 TS 12.0500 145.467 120 885 tokyo main 1595 1584 OOOO_____OO___ jtwc_wp WP281978 12.1000 145.400 ST 150 5 12.0000 145.600 5 120 885 9 100 100 9 175 175 0 12.0000 145.400 6 136 890 12.0000 145.600 SuperT 145 890 12.1000 145.400 TC 150 12.1000 145.400 4 150 17 273
1978288N10185 1978 110 WP MM RITA 1978-10-23 15:00:00 TS 12.0427 144.556 main 1595 1595 PPPP_____PP___ WP281978 12.0722 144.515 ST 147 5 12.0152 144.622 5 115 890 9 85 85 9 175 175 12.0074 144.492 6 136 895 12.0000 144.672 SuperT 142 892 12.0722 144.515 TC 147 12.0890 144.522 4 147 18 269
1978288N10185 1978 110 WP MM RITA 1978-10-23 18:00:00 TS 12.0069 143.618 110 895 tokyo main 1614 1606 OOOO_____OP___ jtwc_wp WP281978 12.0000 143.600 ST 145 5 12.0000 143.600 5 110 895 9 70 70 9 175 175 0 12.0000 143.600 6 136 900 12.0000 143.700 SuperT 140 895 12.0000 143.600 TC 145 12.0415 143.608 4 145 18 269
1978288N10185 1978 110 WP MM RITA 1978-10-23 21:00:00 TS 11.9985 142.721 main 1602 1577 PPPP_____PP___ WP281978 11.9698 142.657 ST 142 5 11.9770 142.692 5 110 897 9 70 70 9 175 175 12.0342 142.830 6 136 900 12.0418 142.822 SuperT 140 897 11.9698 142.657 TC 142 11.9982 142.665 4 142 18 271
1978288N10185 1978 110 WP MM RITA 1978-10-24 00:00:00 TS 12.0333 141.800 110 900 tokyo main 1574 1547 OOOO_____OO___ jtwc_wp WP281978 12.0000 141.700 ST 140 5 12.0000 141.800 5 110 900 9 70 70 9 175 175 0 12.1000 142.000 6 136 900 12.1000 141.900 SuperT 140 900 12.0000 141.700 TC 140 12.0000 141.700 4 140 19 274
1978288N10185 1978 110 WP MM RITA 1978-10-24 03:00:00 TS 12.1417 140.819 main 1543 1524 PPPP_____PP___ WP281978 12.1270 140.765 ST 140 5 12.1421 140.873 5 110 900 9 70 70 9 175 175 12.2000 140.953 6 136 900 12.1350 140.822 SuperT 140 900 12.1270 140.765 TC 140 12.1189 140.739 4 141 20 277
1978288N10185 1978 110 WP MM RITA 1978-10-24 06:00:00 TS 12.2806 139.792 110 900 tokyo main 1526 1422 OOOO_____OP___ jtwc_wp WP281978 12.3000 139.800 ST 140 5 12.3000 139.900 5 110 900 9 70 70 9 175 175 0 12.3000 139.800 6 136 900 12.2000 139.700 SuperT 140 900 12.3000 139.800 TC 140 12.2834 139.754 4 142 20 277
1978288N10185 1978 110 WP MM RITA 1978-10-24 09:00:00 TS 12.4056 138.751 main 1422 1307 PPPP_____PP___ WP281978 12.4722 138.773 ST 142 5 12.3494 138.895 5 110 897 9 70 70 9 187 175 12.3421 138.657 6 136 895 12.3417 138.665 SuperT 140 897 12.4722 138.773 TC 142 12.4562 138.742 4 143 21 276
1978288N10185 1978 110 WP MM RITA 1978-10-24 12:00:00 TS 12.5167 137.667 110 895 tokyo main 1307 1189 OOOO_____OO___ jtwc_wp WP281978 12.6000 137.700 ST 145 5 12.4000 137.800 5 110 895 9 70 70 8 200 175 0 12.4000 137.500 6 136 890 12.5000 137.600 SuperT 140 895 12.6000 137.700 TC 145 12.6000 137.700 4 145 22 275
1978288N10185 1978 110 WP MM RITA 1978-10-24 15:00:00 TS 12.5954 136.523 main 1179 1062 PPPP_____PP___ WP281978 12.6146 136.607 ST 145 5 12.5501 136.558 5 110 892 9 70 70 8 225 175 12.5422 136.335 6 136 888 12.6149 136.407 SuperT 140 892 12.6146 136.607 TC 145 12.6359 136.623 4 146 22 274
1978288N10185 1978 110 WP MM RITA 1978-10-24 18:00:00 TS 12.6569 135.370 110 890 tokyo main 1062 944 OOOO_____OP___ jtwc_wp WP281978 12.6000 135.500 ST 145 5 12.7000 135.300 5 110 890 9 70 70 8 250 175 0 12.7000 135.200 6 136 886 12.7000 135.200 SuperT 140 890 12.6000 135.500 TC 145 12.6416 135.520 4 147 22 273
1978288N10185 1978 110 WP MM RITA 1978-10-24 21:00:00 TS 12.7057 134.262 main 944 830 PPPP_____PP___ WP281978 12.6271 134.400 ST 147 5 12.7718 134.170 5 115 887 9 70 70 8 225 175 12.8144 134.135 6 140 883 12.7421 134.062 SuperT 142 885 12.6271 134.400 TC 147 12.6514 134.407 4 148 21 273
1978288N10185 1978 110 WP MM RITA 1978-10-25 00:00:00 TS 12.7667 133.183 120 885 tokyo main 830 725 OOOO_____OO___ jtwc_wp WP281978 12.7000 133.300 ST 150 5 12.8000 133.100 5 120 885 9 70 70 8 200 175 0 12.9000 133.100 6 145 880 12.8000 133.000 SuperT 145 880 12.7000 133.300 TC 150 12.7000 133.300 4 150 21 274
1978288N10185 1978 110 WP MM RITA 1978-10-25 03:00:00 TS 12.8552 132.118 main 718 614 PPPP_____PP___ WP281978 12.8271 132.193 ST 150 5 12.7695 132.042 5 120 882 9 85 85 8 200 175 12.9347 132.042 6 145 879 12.9418 132.035 SuperT 145 880 12.8271 132.193 TC 150 12.8309 132.202 4 150 21 276
1978288N10185 1978 110 WP MM RITA 1978-10-25 06:00:00 TS 12.9840 131.069 120 880 tokyo main 614 509 OOOO_____OP___ jtwc_wp WP281978 13.0000 131.100 ST 150 5 12.8000 131.000 5 120 880 9 100 100 8 200 175 0 13.0000 131.000 6 145 878 13.1000 131.100 SuperT 145 880 13.0000 131.100 TC 150 13.0038 131.113 4 150 21 279
1978288N10185 1978 110 WP MM RITA 1978-10-25 09:00:00 TS 13.1634 130.025 main 501 409 PPPP_____PP___ WP281978 13.1995 130.043 ST 150 5 13.0123 129.935 5 120 882 9 112 112 8 200 175 13.1846 129.985 6 140 881 13.1848 130.100 SuperT 145 882 13.1995 130.043 TC 150 13.1998 130.043 4 150 21 281
1978288N10185 1978 110 WP MM RITA 1978-10-25 12:00:00 TS 13.3667 129.000 120 885 tokyo main 402 307 OOOO_____OO___ jtwc_wp WP281978 13.4000 129.000 ST 150 5 13.3000 128.900 5 120 885 9 125 125 8 200 175 0 13.4000 129.000 6 136 885 13.3000 129.100 SuperT 145 885 13.4000 129.000 TC 150 13.4000 129.000 4 150 20 281
1978288N10185 1978 110 WP MM RITA 1978-10-25 15:00:00 TS 13.5539 127.978 main 313 241 PPPP_____PP___ WP281978 13.5498 127.927 ST 147 5 13.5720 127.928 5 115 887 9 125 125 8 200 175 13.5574 128.005 6 136 887 13.5196 128.135 SuperT 142 887 13.5498 127.927 TC 147 13.5745 127.948 4 147 20 281
1978288N10185 1978 110 WP MM RITA 1978-10-25 18:00:00 TS 13.7416 127.005 110 890 tokyo main 233 183 OOOO_____OP___ jtwc_wp WP281978 13.7000 126.900 ST 145 5 13.8000 127.000 5 110 890 9 125 125 8 200 175 0 13.7000 127.100 6 136 890 13.8000 127.200 SuperT 140 890 13.7000 126.900 TC 145 13.7496 126.930 4 145 19 282
1978288N10185 1978 110 WP MM RITA 1978-10-25 21:00:00 TS 13.9313 126.100 main 183 99 PPPP_____PP___ WP281978 13.8998 125.940 ST 142 5 13.9148 126.070 5 110 892 9 125 92 8 200 162 13.8340 126.407 6 131 895 14.1148 126.270 SuperT 140 900 13.8998 125.940 TC 142 13.9249 125.973 4 142 17 283
1978288N10185 1978 110 WP MM RITA 1978-10-26 00:00:00 TS 14.1167 125.267 110 895 tokyo main 99 39 OOOO_____OO___ jtwc_wp WP281978 14.1000 125.100 ST 140 5 14.0000 125.200 5 110 895 8 125 60 8 200 150 0 14.0000 125.700 6 126 900 14.4000 125.400 SuperT 140 910 14.1000 125.100 TC 140 14.1000 125.100 4 140 16 283
1978288N10185 1978 110 WP MM RITA 1978-10-26 03:00:00 TS 14.2840 124.479 main 39 33 PPPP_____PP___ WP281978 14.2494 124.420 ST 137 5 14.1348 124.397 5 110 897 8 122 60 8 200 150 14.2507 124.685 6 121 910 14.5872 124.612 SuperT 130 920 14.2494 124.420 TC 137 14.2324 124.337 4 136 15 283
1978288N10185 1978 110 WP MM RITA 1978-10-26 06:00:00 TS 14.4454 123.760 110 900 tokyo main 55 49 OOOO_____OP___ jtwc_wp WP281978 14.4000 123.800 ST 135 4 14.3000 123.700 5 110 900 8 120 60 8 200 150 0 14.5000 123.700 6 116 920 14.7000 123.900 SuperT 120 930 14.4000 123.800 TC 135 14.3725 123.658 4 132 14 283
1978288N10185 1978 110 WP MM RITA 1978-10-26 09:00:00 TS 14.5858 123.108 main 49 44 PPPP_____PP___ WP281978 14.5624 123.100 ST 130 4 14.4768 123.157 5 110 902 8 115 60 8 200 150 14.6342 123.047 6 116 927 14.7273 123.220 SuperT 120 940 14.5624 123.100 TC 130 14.5515 123.025 4 128 13 285
1978288N10185 1978 110 WP MM RITA 1978-10-26 12:00:00 TS 14.7833 122.483 110 905 tokyo main 67 39 OOOO_____OO___ jtwc_wp WP281978 14.8000 122.400 TY 125 4 14.7000 122.600 5 110 905 8 110 60 8 200 150 0 14.8000 122.500 6 116 935 14.8000 122.600 SuperT 120 950 14.8000 122.400 TC 125 14.8000 122.400 4 125 13 293
1978288N10185 1978 110 WP MM RITA 1978-10-26 15:00:00 TS 15.1067 121.828 main 34 0 PPPP_____PP___ WP281978 15.1622 121.750 TY 112 3 14.9704 121.808 5 105 925 8 100 55 8 200 137 15.1122 121.872 6 111 945 15.0319 122.080 SuperT 120 960 15.1622 121.750 TC 112 15.2016 121.710 4 112 15 300
1978288N10185 1978 110 WP MM RITA 1978-10-26 18:00:00 TS 15.5108 121.154 100 945 tokyo main 0 0 OOOO_____OP___ jtwc_wp WP281978 15.6000 121.100 TY 100 3 15.3000 121.000 5 100 945 8 90 50 8 200 125 0 15.5000 121.200 6 106 955 15.4000 121.500 SuperT 120 970 15.6000 121.100 TC 100 15.6647 121.022 4 100 16 303
1978288N10185 1978 110 WP MM RITA 1978-10-26 21:00:00 TS 15.9696 120.445 main 0 0 PPPP_____PP___ WP281978 16.0800 120.393 TY 87 2 15.6993 120.400 5 92 960 8 82 50 8 187 125 15.9149 120.465 6 101 962 15.9229 120.673 SuperT 110 972 16.0800 120.393 TC 87 16.1204 120.348 4 87 16 303
1978288N10185 1978 110 WP MM RITA 1978-10-27 00:00:00 TS 16.3833 119.733 85 975 tokyo main 15 15 OOOO_____OO___ jtwc_wp WP281978 16.5000 119.700 TY 75 1 16.1000 119.800 5 85 975 8 75 50 8 175 125 0 16.3000 119.700 5 97 970 16.4000 119.800 SuperT 100 975 16.5000 119.700 TC 75 16.5000 119.700 4 75 15 297
1978288N10185 1978 110 WP MM RITA 1978-10-27 03:00:00 TS 16.6521 119.030 main 96 96 PPPP_____PP___ WP281978 16.7597 119.077 TY 67 1 16.4456 118.970 5 82 977 8 75 50 8 175 125 16.5951 118.912 5 92 975 16.6096 119.062 SuperT 95 977 16.7597 119.077 TC 67 16.7431 119.079 4 70 14 288
1978288N10185 1978 110 WP MM RITA 1978-10-27 06:00:00 TS 16.8165 118.382 80 980 tokyo main 159 159 OOOO_____OP___ jtwc_wp WP281978 16.9000 118.500 TS 60 0 16.7000 118.200 5 80 980 8 75 50 8 175 125 0 16.8000 118.200 5 87 980 16.7000 118.400 ST 90 980 16.9000 118.500 TC 60 16.8992 118.489 4 65 12 283
1978288N10185 1978 110 WP MM RITA 1978-10-27 09:00:00 TS 16.9178 117.828 main 223 223 PPPP_____PP___ WP281978 16.9873 117.935 TS 57 0 16.8294 117.755 5 75 982 8 72 45 8 175 112 16.9221 117.655 5 82 982 16.7999 117.762 ST 77 982 16.9873 117.935 TC 57 16.9808 117.930 4 60 10 279
1978288N10185 1978 110 WP MM RITA 1978-10-27 12:00:00 TS 16.9667 117.333 70 985 tokyo main 277 277 OOOO_____OO___ jtwc_wp WP281978 17.0000 117.400 TS 55 0 16.9000 117.400 5 70 985 8 70 40 8 175 100 0 17.0000 117.200 4 77 984 16.9000 117.200 T 65 985 17.0000 117.400 TC 55 17.0000 117.400 2 55 10 276
1978288N10185 1978 110 WP MM RITA 1978-10-27 15:00:00 TS 17.0228 116.826 main 328 328 PPPP_____PP___ WP281978 16.9724 116.885 TS 52 0 17.0300 116.908 5 62 987 8 60 45 8 162 100 17.1300 116.713 4 72 987 17.0498 116.720 T 65 987 16.9724 116.885 TC 52 16.9824 116.847 2 53 9 274
1978288N10185 1978 110 WP MM RITA 1978-10-27 18:00:00 TS 17.0350 116.355 55 990 tokyo main 369 369 OOOO_____OP___ jtwc_wp WP281978 16.9000 116.400 TS 50 0 17.1000 116.400 4 55 990 9 50 50 8 150 100 0 17.2000 116.300 4 68 990 17.2000 116.300 T 65 990 16.9000 116.400 TC 50 16.9101 116.329 2 52 9 268
1978288N10185 1978 110 WP MM RITA 1978-10-27 21:00:00 TS 16.9879 115.915 main 420 420 PPPP_____PP___ WP281978 16.8000 115.905 TS 50 0 17.0375 115.905 4 55 990 9 50 50 8 150 100 17.1373 116.027 4 68 990 17.3450 115.878 T 65 990 16.8000 115.905 TC 50 16.8076 115.872 2 51 8 260
1978288N10185 1978 110 WP MM RITA 1978-10-28 00:00:00 TS 16.9000 115.550 55 990 tokyo main 448 448 OOOO_____OO___ jtwc_wp WP281978 16.7000 115.500 TS 50 0 16.9000 115.500 4 55 990 9 50 50 8 150 100 0 17.0000 115.800 4 68 990 17.4000 115.500 T 65 990 16.7000 115.500 TC 50 16.7000 115.500 2 50 6 254
1978288N10185 1978 110 WP MM RITA 1978-10-28 03:00:00 TS 16.8188 115.281 main 477 477 PPPP_____PP___ WP281978 16.6498 115.255 TS 50 0 16.7723 115.255 4 52 990 9 8 175 150 16.8575 115.492 4 63 990 17.3025 115.155 T 65 992 16.6498 115.255 TC 50 16.6809 115.276 2 50 5 247
1978288N10185 1978 110 WP MM RITA 1978-10-28 06:00:00 TS 16.7090 115.088 50 990 tokyo main 497 497 OOOO_____OP___ jtwc_wp WP281978 16.6000 115.100 TS 50 0 16.6000 115.100 4 50 990 0 9 200 200 0 16.7000 115.200 3 58 990 17.1000 114.900 T 65 995 16.6000 115.100 TC 50 16.6537 115.129 2 50 4 233
1978288N10185 1978 110 WP MM RITA 1978-10-28 09:00:00 TS 16.5728 114.945 main 516 515 PPPP_____PP___ WP281978 16.5449 114.973 TS 50 0 16.3499 114.958 4 50 990 0 9 200 200 16.5574 114.993 3 58 990 16.8649 114.785 T 60 995 16.5449 114.973 TC 50 16.5747 114.992 2 50 4 222
1978288N10185 1978 110 WP MM RITA 1978-10-28 12:00:00 TS 16.3833 114.783 50 990 tokyo main 525 516 OOOO_____OO___ jtwc_wp WP281978 16.4000 114.800 TS 50 0 16.1000 114.800 4 50 990 0 9 200 200 0 16.4000 114.800 3 58 990 16.6000 114.700 STS 55 995 16.4000 114.800 TC 50 16.4000 114.800 2 50 6 223
1978288N10185 1978 110 WP MM RITA 1978-10-28 15:00:00 TS 16.1341 114.522 main 520 509 PPPP_____PP___ WP281978 16.1100 114.495 TS 47 0 15.9501 114.550 4 47 991 0 9 200 200 16.2300 114.565 3 53 991 16.3575 114.530 STS 52 995 16.1100 114.495 TC 47 16.0469 114.496 2 47 8 225
1978288N10185 1978 110 WP MM RITA 1978-10-28 18:00:00 TS 15.8170 114.204 45 992 tokyo main 516 516 OOOO_____OP___ jtwc_wp WP281978 15.7000 114.100 TS 45 0 15.8000 114.300 3 45 992 0 9 200 200 0 16.0000 114.300 3 48 992 16.1000 114.300 STS 50 995 15.7000 114.100 TC 45 15.6020 114.126 2 45 9 221
1978288N10185 1978 110 WP MM RITA 1978-10-28 21:00:00 TS 15.4292 113.885 main 521 471 PPPP_____PP___ WP281978 15.1924 113.680 TS 42 0 15.5723 114.188 3 42 992 0 9 162 145 15.6799 114.030 3 43 993 15.8074 114.038 STS 47 996 15.1924 113.680 TC 42 15.1311 113.693 2 42 10 221
1978288N10185 1978 110 WP MM RITA 1978-10-29 00:00:00 TS 15.0333 113.500 40 992 tokyo main 468 419 OOOO_____OO___ jtwc_wp WP281978 14.7000 113.200 TS 40 0 15.3000 114.000 3 40 992 0 8 125 90 0 15.3000 113.700 2 38 995 15.5000 113.700 TS 45 998 14.7000 113.200 TC 40 14.7000 113.200 2 40 11 228
1978288N10185 1978 110 WP MM RITA 1978-10-29 03:00:00 TS 14.6911 113.022 main 408 349 PPPP_____PP___ WP281978 14.3549 112.680 TS 37 0 15.0151 113.552 3 40 993 0 8 107 70 14.8850 113.280 2 38 995 15.1774 113.287 TS 42 999 14.3549 112.680 TC 37 14.3590 112.651 2 37 12 237
1978288N10185 1978 110 WP MM RITA 1978-10-29 06:00:00 TS 14.4126 112.495 40 994 tokyo main 349 293 OOOO_____OP___ jtwc_wp WP281978 14.1000 112.100 TS 35 0 14.7000 113.000 3 40 994 0 8 90 50 0 14.5000 112.800 2 38 995 14.9000 112.800 TS 40 1000 14.1000 112.100 TC 35 14.0966 112.058 2 35 11 245
1978288N10185 1978 110 WP MM RITA 1978-10-29 09:00:00 TS 14.2135 111.966 main 293 227 PPPP_____PP___ WP281978 13.9449 111.473 TS 32 -1 14.3799 112.500 3 37 995 0 8 90 50 14.2270 112.368 2 33 995 14.7349 112.280 TS 40 1000 13.9449 111.473 TC 32 13.8858 111.436 2 32 11 248
1978288N10185 1978 110 WP MM RITA 1978-10-29 12:00:00 TS 13.9824 111.418 35 996 tokyo main 227 170 OOOO_____OO___ jtwc_wp WP281978 13.7000 110.800 TD 30 -1 14.0000 112.000 3 35 996 0 8 90 50 0 14.0000 111.800 1 29 996 14.6000 111.700 TS 40 1000 13.7000 110.800 TC 30 13.7000 110.800 1 30 12 240
1978288N10185 1978 110 WP MM RITA 1978-10-29 15:00:00 TS 13.5987 110.875 main 170 100 PPPP_____P____ WP281978 13.1854 110.104 TD 27 -1 13.5224 111.500 3 998 0 8 13.7586 110.977 1 26 998 14.4179 111.065 TS 37 1001 13.1854 110.104 TC 27 1 13 228
1978288N10185 1978 110 WP MM RITA 1978-10-29 18:00:00 TS 13.0875 110.400 1000 tokyo main 100 97 OOOO_____O____ jtwc_wp WP281978 12.5000 109.400 TD 25 -1 13.0000 111.000 2 1000 0 0 0 13.5000 110.000 1 23 1000 14.2000 110.400 TS 35 1002 12.5000 109.400 TC 25 1 12 196
1978288N10185 1978 110 WP MM RITA 1978-10-29 21:00:00 TS 12.4247 110.537 main 110 77 _P____________ WP281978 TD -1 12.4247 110.537 2 1004 0 0 1 TS TC 1 12 200
1978288N10185 1978 110 WP MM RITA 1978-10-30 00:00:00 TS 12.0000 110.000 1008 tokyo main 77 0 _O____________ 12.0000 110.000 2 1008 0 0 0 13 247
1978288N10185 1978 110 WP MM RITA 1978-10-30 03:00:00 TS 11.9006 109.300 main 0 0 _P____________ 11.9006 109.300 2 1008 0 0 15 270
1978288N10185 1978 110 WP MM RITA 1978-10-30 06:00:00 TS 12.0000 108.500 1008 tokyo main 0 _O____________ 12.0000 108.500 2 1008 0 0 0 16 277

IBTrACS Databaseについて

本データベースは、米国NOAAが公開する1842年以降の世界の熱帯低気圧のベストトラックデータアーカイブInternational Best Track Archive for Climate Stewardship (IBTrACS)を、ウェブで閲覧しやすい形式に変換したものです。

最終更新日:2021-12-01